Potato Creek, South Dakota
Current Conditions -  °F | °C
As of 1:05 PM on Monday 24 Nov 2014 (Local Time) from KIEN Reporting Station
Light Snow Light Snow  
Wind Chill: 23°   Ceiling: 1900
Heat Index: 31°   Visibility: 0.75mi
Dew Point: 27°   Wind: 8mph
Humidity: 85%   Direction: 350°N
Pressure: 29.94"   Gusts: NA
Location:  43.7587°N, 101.898°W
Report Text: KIEN 242005Z AUTO 35007KT 3/4SM -SN BR BKN019 OVC030 M01/M03 A2994 RMK AO2 SNB1955 P0001 T10061028
Loading
Personal Weather Stations






























Interactive Weather Map New forecast layout! Learn more

10-Day Weather Forecast

Advertisements
Track Severe Weather on mobile